createdAt,value
2018-05-14T00:00:52.085Z,3.07
2018-05-14T00:03:18.666Z,2.80
2018-05-14T00:05:45.770Z,2.60
2018-05-14T00:08:13.246Z,3.23
2018-05-14T00:10:40.440Z,2.80
2018-05-14T00:13:07.096Z,3.03
2018-05-14T00:15:33.741Z,2.70
2018-05-14T00:18:00.284Z,3.27
2018-05-14T00:20:27.192Z,3.03
2018-05-14T00:22:53.836Z,3.00
2018-05-14T00:25:23.648Z,3.00
2018-05-14T00:27:50.288Z,3.53
2018-05-14T00:30:17.268Z,3.00
2018-05-14T00:32:44.005Z,2.90
2018-05-14T00:35:10.857Z,3.17
2018-05-14T00:37:37.501Z,3.30
2018-05-14T00:40:04.018Z,2.97
2018-05-14T00:42:30.621Z,3.33
2018-05-14T00:45:02.649Z,3.17
2018-05-14T00:47:29.224Z,2.80
2018-05-14T00:49:55.784Z,3.00
2018-05-14T00:52:22.418Z,3.40
2018-05-14T00:55:02.151Z,3.90
2018-05-14T00:57:28.710Z,3.30
2018-05-14T00:59:55.265Z,3.60
2018-05-14T01:02:22.008Z,3.77
2018-05-14T01:04:50.129Z,3.07
2018-05-14T01:07:16.713Z,3.30
2018-05-14T01:09:43.417Z,3.57
2018-05-14T01:12:09.935Z,3.60
2018-05-14T01:14:37.602Z,3.53
2018-05-14T01:17:04.301Z,3.40
2018-05-14T01:19:30.992Z,3.57
2018-05-14T01:21:57.753Z,3.37
2018-05-14T01:24:25.305Z,3.60
2018-05-14T01:26:51.956Z,3.40
2018-05-14T01:29:18.630Z,3.80
2018-05-14T01:31:45.338Z,3.67
2018-05-14T01:34:15.970Z,3.47
2018-05-14T01:36:42.603Z,3.00
2018-05-14T01:39:09.236Z,3.63
2018-05-14T01:41:35.812Z,3.13
2018-05-14T01:44:07.049Z,3.37
2018-05-14T01:46:33.749Z,3.40
2018-05-14T01:49:00.778Z,3.20
2018-05-14T01:51:27.441Z,3.27
2018-05-14T01:53:55.316Z,2.77
2018-05-14T01:56:22.187Z,3.20
2018-05-14T01:58:48.922Z,2.90
2018-05-14T02:01:16.041Z,3.50
2018-05-14T02:03:42.780Z,3.30
2018-05-14T02:06:09.413Z,2.90
2018-05-14T02:08:36.043Z,3.23
2018-05-14T02:11:02.594Z,3.37
2018-05-14T02:13:29.246Z,2.60
2018-05-14T02:16:03.176Z,3.43
2018-05-14T02:18:29.806Z,3.10
2018-05-14T02:20:56.334Z,3.20
2018-05-14T02:23:23.205Z,2.97
2018-05-14T02:25:54.109Z,2.77
2018-05-14T02:28:20.836Z,2.80
2018-05-14T02:30:47.489Z,2.80
2018-05-14T02:33:14.093Z,2.93
2018-05-14T02:35:44.129Z,2.90
2018-05-14T02:38:11.308Z,3.00
2018-05-14T02:40:37.893Z,2.90
2018-05-14T02:43:04.545Z,2.67
2018-05-14T02:45:31.302Z,3.00
2018-05-14T02:47:57.861Z,3.03
2018-05-14T02:50:24.391Z,2.97
2018-05-14T02:52:51.018Z,2.73
2018-05-14T02:55:17.733Z,3.30
2018-05-14T02:57:44.720Z,2.97
2018-05-14T03:00:11.671Z,3.20
2018-05-14T03:02:38.334Z,3.23
2018-05-14T03:05:08.532Z,2.90
2018-05-14T03:07:35.172Z,2.63
2018-05-14T03:10:02.168Z,3.30
2018-05-14T03:12:28.853Z,3.27
2018-05-14T03:14:56.601Z,3.33
2018-05-14T03:17:23.289Z,3.67
2018-05-14T03:19:50.300Z,3.67
2018-05-14T03:22:16.896Z,3.40
2018-05-14T03:24:48.488Z,3.50
2018-05-14T03:27:15.233Z,3.50
2018-05-14T03:29:42.020Z,3.53
2018-05-14T03:32:08.746Z,4.43
2018-05-14T03:34:38.884Z,3.80
2018-05-14T03:37:05.673Z,3.77
2018-05-14T03:39:32.297Z,3.90
2018-05-14T03:41:58.825Z,4.00
2018-05-14T03:44:25.580Z,3.63
2018-05-14T03:46:52.591Z,4.20
2018-05-14T03:49:19.230Z,5.07
2018-05-14T03:51:45.828Z,3.93
2018-05-14T03:54:13.649Z,4.20
2018-05-14T03:56:40.238Z,4.17
2018-05-14T03:59:18.924Z,3.57
2018-05-14T04:01:58.157Z,4.00
2018-05-14T04:04:41.304Z,3.70
2018-05-14T04:07:07.884Z,4.60
2018-05-14T04:09:34.459Z,4.23
2018-05-14T04:12:01.091Z,4.20
2018-05-14T04:14:28.873Z,4.50
2018-05-14T04:16:55.876Z,3.77
2018-05-14T04:19:22.437Z,3.93
2018-05-14T04:21:49.247Z,4.00
2018-05-14T04:24:16.966Z,4.17
2018-05-14T04:26:44.076Z,4.13
2018-05-14T04:29:10.780Z,3.70
2018-05-14T04:31:37.475Z,3.87
2018-05-14T04:34:08.793Z,4.23
2018-05-14T04:36:35.477Z,3.90
2018-05-14T04:39:02.121Z,3.60
2018-05-14T04:41:28.875Z,3.63
2018-05-14T04:44:05.850Z,3.40
2018-05-14T04:46:32.541Z,4.07
2018-05-14T04:48:59.226Z,3.87
2018-05-14T04:51:25.898Z,4.00
2018-05-14T04:53:59.190Z,3.63
2018-05-14T04:56:26.462Z,4.03
2018-05-14T04:58:53.097Z,5.03
2018-05-14T05:01:19.850Z,4.63
2018-05-14T05:03:50.379Z,4.87
2018-05-14T05:06:17.049Z,3.93
2018-05-14T05:08:43.677Z,3.70
2018-05-14T05:11:10.970Z,3.73
2018-05-14T05:13:37.858Z,4.50
2018-05-14T05:16:04.340Z,4.17
2018-05-14T05:18:30.973Z,4.13
2018-05-14T05:20:57.544Z,3.93
2018-05-14T05:23:27.508Z,3.63
2018-05-14T05:25:54.319Z,5.40
2018-05-14T05:28:21.893Z,3.70
2018-05-14T05:30:48.402Z,3.70
2018-05-14T05:33:28.286Z,3.47
2018-05-14T05:35:54.840Z,4.50
2018-05-14T05:38:21.466Z,4.00
2018-05-14T05:40:47.940Z,4.07
2018-05-14T05:43:14.772Z,4.07
2018-05-14T05:45:41.438Z,3.70
2018-05-14T05:48:08.445Z,3.97
2018-05-14T05:50:35.144Z,4.07
2018-05-14T05:53:06.906Z,3.90
2018-05-14T05:55:33.613Z,3.97
2018-05-14T05:58:00.189Z,3.57
2018-05-14T06:00:26.961Z,3.83
2018-05-14T06:02:53.967Z,4.03
2018-05-14T06:05:20.554Z,3.83
2018-05-14T06:07:47.262Z,3.40
2018-05-14T06:10:13.958Z,3.83
2018-05-14T06:12:40.979Z,4.00
2018-05-14T06:15:07.896Z,3.87
2018-05-14T06:17:34.572Z,4.10
2018-05-14T06:20:01.278Z,4.60
2018-05-14T06:22:27.941Z,3.57
2018-05-14T06:24:57.824Z,3.67
2018-05-14T06:27:24.530Z,3.47
2018-05-14T06:29:51.259Z,3.90
2018-05-14T06:32:17.804Z,4.57
2018-05-14T06:34:47.785Z,3.83
2018-05-14T06:37:14.347Z,4.00
2018-05-14T06:39:40.992Z,4.77
2018-05-14T06:42:07.635Z,3.90
2018-05-14T06:44:35.314Z,3.87
2018-05-14T06:47:02.817Z,3.83
2018-05-14T06:49:29.761Z,4.00
2018-05-14T06:51:56.478Z,4.10
2018-05-14T06:54:24.129Z,3.70
2018-05-14T06:56:50.711Z,4.00
2018-05-14T06:59:17.355Z,4.20
2018-05-14T07:01:44.040Z,3.80
2018-05-14T07:04:13.733Z,3.77
2018-05-14T07:06:40.454Z,4.13
2018-05-14T07:09:07.377Z,3.40
2018-05-14T07:11:34.078Z,3.90
2018-05-14T07:14:03.722Z,4.20
2018-05-14T07:16:30.514Z,3.57
2018-05-14T07:18:57.165Z,4.47
2018-05-14T07:21:24.158Z,4.03
2018-05-14T07:23:51.049Z,3.60
2018-05-14T07:26:17.745Z,4.70
2018-05-14T07:28:44.329Z,4.30
2018-05-14T07:31:10.906Z,3.90
2018-05-14T07:33:37.558Z,3.90
2018-05-14T07:36:04.290Z,4.27
2018-05-14T07:38:31.123Z,3.80
2018-05-14T07:40:58.181Z,4.17
2018-05-14T07:43:26.155Z,3.67
2018-05-14T07:45:52.782Z,4.03
2018-05-14T07:48:19.470Z,4.00
2018-05-14T07:50:46.059Z,4.40
2018-05-14T07:53:13.895Z,4.20
2018-05-14T07:55:40.611Z,4.70
2018-05-14T07:58:07.248Z,4.27
2018-05-14T08:00:33.989Z,4.40
2018-05-14T08:03:01.202Z,4.10
2018-05-14T08:05:28.139Z,4.33
2018-05-14T08:07:54.810Z,3.70
2018-05-14T08:10:21.475Z,3.70
2018-05-14T08:12:48.113Z,4.10
2018-05-14T08:15:14.670Z,9.73
2018-05-14T08:17:41.248Z,4.23
2018-05-14T08:20:08.017Z,4.00
2018-05-14T08:22:34.621Z,4.00
2018-05-14T08:25:04.929Z,6.80
2018-05-14T08:27:31.517Z,4.63
2018-05-14T08:29:58.255Z,4.20
2018-05-14T08:32:24.894Z,4.87
2018-05-14T08:34:59.687Z,3.60
2018-05-14T08:37:26.374Z,4.43
2018-05-14T08:39:52.947Z,4.20
2018-05-14T08:42:19.653Z,4.43
2018-05-14T08:44:49.662Z,4.03
2018-05-14T08:47:16.366Z,4.17
2018-05-14T08:49:43.406Z,4.80
2018-05-14T08:52:10.036Z,4.53
2018-05-14T08:54:40.109Z,4.67
2018-05-14T08:57:06.800Z,5.00
2018-05-14T08:59:33.549Z,4.10
2018-05-14T09:02:00.117Z,3.83
2018-05-14T09:04:30.111Z,3.97
2018-05-14T09:06:57.137Z,4.03
2018-05-14T09:09:23.747Z,3.97
2018-05-14T09:11:50.787Z,3.97
2018-05-14T09:14:21.813Z,4.60
2018-05-14T09:16:48.372Z,4.10
2018-05-14T09:19:15.111Z,4.30
2018-05-14T09:21:41.676Z,4.10
2018-05-14T09:24:16.009Z,3.67
2018-05-14T09:26:43.645Z,3.93
2018-05-14T09:29:10.712Z,4.00
2018-05-14T09:31:37.314Z,3.77
2018-05-14T09:34:06.915Z,3.97
2018-05-14T09:36:33.590Z,4.27
2018-05-14T09:39:00.285Z,4.17
2018-05-14T09:41:26.844Z,4.13
2018-05-14T09:43:57.404Z,3.73
2018-05-14T09:46:23.901Z,4.50
2018-05-14T09:48:50.469Z,4.23
2018-05-14T09:51:17.821Z,4.07
2018-05-14T09:53:54.254Z,4.20
2018-05-14T09:56:20.846Z,5.00
2018-05-14T09:58:47.838Z,4.27
2018-05-14T10:01:14.466Z,4.43
2018-05-14T10:03:51.706Z,5.20
2018-05-14T10:06:18.367Z,4.83
2018-05-14T10:08:45.350Z,4.90
2018-05-14T10:11:11.990Z,5.40
2018-05-14T10:13:38.667Z,5.90
2018-05-14T10:16:05.391Z,5.40
2018-05-14T10:18:32.349Z,5.33
2018-05-14T10:20:59.638Z,5.73
2018-05-14T10:23:39.964Z,5.73
2018-05-14T10:26:06.600Z,4.83
2018-05-14T10:28:33.284Z,5.80
2018-05-14T10:30:59.782Z,6.13
2018-05-14T10:33:30.276Z,5.47
2018-05-14T10:35:56.885Z,5.80
2018-05-14T10:38:23.446Z,5.13
2018-05-14T10:40:50.011Z,5.20
2018-05-14T10:43:21.526Z,6.03
2018-05-14T10:45:48.170Z,5.43
2018-05-14T10:48:14.827Z,5.63
2018-05-14T10:50:41.986Z,5.53
2018-05-14T10:53:14.883Z,5.70
2018-05-14T10:55:41.459Z,5.60
2018-05-14T10:58:08.174Z,5.87
2018-05-14T11:00:34.879Z,5.70
2018-05-14T11:03:07.207Z,5.50
2018-05-14T11:05:33.845Z,5.53
2018-05-14T11:08:00.588Z,5.70
2018-05-14T11:10:27.235Z,6.40
2018-05-14T11:13:11.858Z,5.43
2018-05-14T11:15:38.464Z,5.33
2018-05-14T11:18:05.390Z,5.10
2018-05-14T11:20:32.126Z,5.43
2018-05-14T11:23:05.523Z,5.80
2018-05-14T11:25:32.203Z,6.10
2018-05-14T11:27:58.849Z,6.20
2018-05-14T11:30:26.247Z,5.90
2018-05-14T11:33:03.192Z,6.30
2018-05-14T11:35:30.138Z,6.60
2018-05-14T11:37:57.074Z,5.97
2018-05-14T11:40:23.818Z,6.00
2018-05-14T11:42:50.296Z,5.20
2018-05-14T11:45:16.938Z,5.90
2018-05-14T11:47:43.838Z,5.90
2018-05-14T11:50:10.413Z,5.90
2018-05-14T11:52:38.206Z,5.70
2018-05-14T11:55:04.781Z,5.20
2018-05-14T11:57:31.536Z,5.43
2018-05-14T11:59:58.159Z,5.70
2018-05-14T12:02:28.772Z,5.07
2018-05-14T12:04:55.410Z,5.87
2018-05-14T12:07:22.246Z,4.70
2018-05-14T12:09:48.964Z,5.07
2018-05-14T12:12:16.921Z,5.20
2018-05-14T12:14:43.299Z,5.23
2018-05-14T12:17:10.249Z,5.00
2018-05-14T12:19:36.902Z,5.17
2018-05-14T12:22:03.557Z,5.47
2018-05-14T12:24:30.192Z,4.87
2018-05-14T12:26:56.852Z,4.63
2018-05-14T12:29:23.518Z,4.67
2018-05-14T12:31:50.111Z,4.53
2018-05-14T12:34:20.565Z,4.30
2018-05-14T12:36:47.186Z,5.20
2018-05-14T12:39:13.826Z,5.30
2018-05-14T12:41:41.111Z,6.00
2018-05-14T12:44:12.238Z,4.90
2018-05-14T12:46:38.886Z,5.70
2018-05-14T12:49:05.546Z,5.33
2018-05-14T12:51:32.153Z,5.20
2018-05-14T12:54:02.778Z,4.80
2018-05-14T12:56:29.753Z,5.33
2018-05-14T12:58:56.393Z,5.07
2018-05-14T13:01:23.090Z,4.93
2018-05-14T13:03:53.422Z,5.10
2018-05-14T13:06:20.021Z,5.67
2018-05-14T13:08:46.782Z,5.37
2018-05-14T13:11:13.490Z,5.17
2018-05-14T13:13:45.389Z,4.83
2018-05-14T13:16:12.117Z,5.60
2018-05-14T13:18:38.629Z,5.37
2018-05-14T13:21:05.452Z,5.90
2018-05-14T13:23:35.749Z,5.67
2018-05-14T13:26:02.404Z,5.43
2018-05-14T13:28:29.089Z,5.43
2018-05-14T13:30:55.829Z,5.80
2018-05-14T13:33:29.055Z,5.60
2018-05-14T13:35:55.720Z,6.10
2018-05-14T13:38:22.336Z,6.30
2018-05-14T13:40:49.045Z,5.53
2018-05-14T13:43:27.861Z,5.57
2018-05-14T13:45:55.509Z,6.33
2018-05-14T13:48:22.117Z,6.67
2018-05-14T13:50:48.758Z,5.53
2018-05-14T13:53:22.628Z,5.23
2018-05-14T13:55:49.301Z,5.67
2018-05-14T13:58:15.985Z,5.33
2018-05-14T14:00:42.669Z,5.93
2018-05-14T14:03:09.339Z,5.47
2018-05-14T14:05:36.008Z,6.10
2018-05-14T14:08:02.633Z,5.43
2018-05-14T14:10:29.246Z,5.70
2018-05-14T14:12:55.915Z,5.70
2018-05-14T14:15:22.619Z,6.33
2018-05-14T14:17:49.273Z,5.70
2018-05-14T14:20:16.390Z,5.27
2018-05-14T14:22:47.743Z,5.57
2018-05-14T14:25:14.369Z,5.47
2018-05-14T14:27:41.087Z,5.57
2018-05-14T14:30:07.715Z,5.43
2018-05-14T14:32:34.446Z,5.10
2018-05-14T14:35:01.267Z,5.60
2018-05-14T14:37:27.939Z,5.70
2018-05-14T14:39:54.571Z,4.83
2018-05-14T14:42:24.512Z,5.97
2018-05-14T14:44:51.233Z,5.87
2018-05-14T14:47:17.855Z,6.10
2018-05-14T14:49:44.581Z,6.20
2018-05-14T14:52:12.251Z,6.03
2018-05-14T14:54:38.895Z,6.33
2018-05-14T14:57:05.556Z,6.17
2018-05-14T14:59:32.174Z,6.23
2018-05-14T15:02:04.774Z,6.70
2018-05-14T15:04:31.481Z,6.17
2018-05-14T15:06:58.162Z,6.13
2018-05-14T15:09:24.761Z,6.43
2018-05-14T15:11:51.456Z,6.53
2018-05-14T15:14:18.090Z,6.40
2018-05-14T15:16:44.706Z,6.83
2018-05-14T15:19:12.109Z,6.53
2018-05-14T15:21:45.117Z,6.63
2018-05-14T15:24:11.854Z,5.93
2018-05-14T15:26:39.054Z,6.50
2018-05-14T15:29:05.774Z,6.37
2018-05-14T15:31:32.406Z,5.87
2018-05-14T15:33:59.144Z,5.50
2018-05-14T15:36:25.760Z,5.50
2018-05-14T15:38:52.400Z,6.10
2018-05-14T15:41:19.172Z,5.57
2018-05-14T15:43:52.808Z,5.97
2018-05-14T15:46:19.357Z,5.27
2018-05-14T15:48:46.073Z,6.07
2018-05-14T15:51:12.790Z,6.57
2018-05-14T15:53:39.527Z,5.57
2018-05-14T15:56:06.095Z,6.10
2018-05-14T15:58:32.773Z,5.90
2018-05-14T16:00:59.408Z,6.70
2018-05-14T16:03:26.365Z,7.87
2018-05-14T16:05:52.959Z,6.80
2018-05-14T16:08:19.723Z,6.60
2018-05-14T16:10:46.318Z,5.93
2018-05-14T16:13:16.538Z,6.43
2018-05-14T16:15:43.215Z,6.50
2018-05-14T16:18:09.799Z,6.90
2018-05-14T16:20:36.997Z,6.77
2018-05-14T16:23:10.010Z,5.80
2018-05-14T16:25:36.644Z,5.93
2018-05-14T16:28:03.322Z,5.97
2018-05-14T16:30:30.073Z,5.87
2018-05-14T16:33:00.337Z,6.13
2018-05-14T16:35:26.904Z,6.10
2018-05-14T16:37:53.316Z,5.23
2018-05-14T16:40:19.896Z,5.60
2018-05-14T16:42:47.660Z,5.37
2018-05-14T16:45:14.300Z,5.50
2018-05-14T16:47:40.927Z,6.50
2018-05-14T16:50:07.513Z,6.20
2018-05-14T16:52:34.418Z,5.80
2018-05-14T16:55:01.430Z,6.43
2018-05-14T16:57:28.385Z,5.57
2018-05-14T16:59:55.290Z,6.93
2018-05-14T17:02:22.620Z,6.10
2018-05-14T17:04:49.315Z,6.70
2018-05-14T17:07:15.815Z,6.73
2018-05-14T17:09:42.506Z,5.80
2018-05-14T17:12:16.327Z,7.93
2018-05-14T17:14:43.022Z,6.70
2018-05-14T17:17:09.655Z,6.20
2018-05-14T17:19:36.311Z,7.10
2018-05-14T17:22:03.098Z,6.87
2018-05-14T17:24:29.799Z,7.30
2018-05-14T17:26:57.402Z,7.00
2018-05-14T17:29:23.972Z,6.13
2018-05-14T17:31:57.869Z,6.73
2018-05-14T17:34:24.514Z,7.20
2018-05-14T17:36:51.115Z,5.80
2018-05-14T17:39:17.782Z,5.97
2018-05-14T17:41:49.690Z,5.63
2018-05-14T17:44:16.270Z,5.50
2018-05-14T17:46:42.953Z,6.13
2018-05-14T17:49:09.535Z,6.43
2018-05-14T17:51:39.709Z,5.90
2018-05-14T17:54:06.526Z,7.00
2018-05-14T17:56:33.133Z,7.90
2018-05-14T17:58:59.944Z,8.70
2018-05-14T18:01:30.150Z,6.63
2018-05-14T18:03:56.747Z,7.00
2018-05-14T18:06:25.498Z,6.80
2018-05-14T18:08:52.486Z,6.40
2018-05-14T18:11:24.072Z,7.00
2018-05-14T18:13:51.829Z,7.00
2018-05-14T18:16:18.452Z,6.50
2018-05-14T18:18:45.459Z,6.73
2018-05-14T18:21:15.931Z,6.37
2018-05-14T18:23:46.402Z,8.97
2018-05-14T18:26:16.892Z,8.37
2018-05-14T18:28:43.613Z,5.90
2018-05-14T18:31:19.996Z,5.90
2018-05-14T18:33:46.671Z,5.13
2018-05-14T18:36:13.307Z,5.33
2018-05-14T18:38:40.217Z,5.63
2018-05-14T18:41:07.097Z,5.60
2018-05-14T18:43:33.818Z,5.20
2018-05-14T18:46:00.320Z,5.37
2018-05-14T18:48:26.961Z,5.57
2018-05-14T18:50:53.605Z,5.30
2018-05-14T18:53:24.372Z,5.63
2018-05-14T18:55:51.031Z,5.97
2018-05-14T18:58:17.674Z,5.30
2018-05-14T19:00:44.866Z,5.93
2018-05-14T19:03:13.273Z,5.73
2018-05-14T19:05:39.833Z,5.63
2018-05-14T19:08:06.429Z,6.20
2018-05-14T19:10:39.553Z,5.07
2018-05-14T19:13:11.520Z,5.50
2018-05-14T19:15:43.971Z,5.10
2018-05-14T19:18:10.713Z,5.30
2018-05-14T19:20:37.821Z,5.23
2018-05-14T19:23:16.782Z,4.77
2018-05-14T19:25:43.364Z,4.73
2018-05-14T19:31:11.094Z,5.00
2018-05-14T19:33:43.802Z,4.90
2018-05-14T19:36:10.603Z,5.53
2018-05-14T19:38:37.198Z,5.10
2018-05-14T19:41:06.941Z,5.17
2018-05-14T19:43:33.721Z,5.33
2018-05-14T19:46:00.279Z,5.40
2018-05-14T19:48:26.946Z,4.83
2018-05-14T19:50:53.683Z,5.13
2018-05-14T19:53:20.325Z,5.33
2018-05-14T19:55:46.965Z,5.07
2018-05-14T19:58:13.626Z,5.60
2018-05-14T20:00:40.215Z,5.30
2018-05-14T20:03:12.365Z,5.20
2018-05-14T20:05:39.078Z,5.20
2018-05-14T20:08:05.801Z,4.87
2018-05-14T20:10:32.465Z,5.37
2018-05-14T20:12:59.443Z,4.83
2018-05-14T20:15:26.043Z,5.10
2018-05-14T20:17:53.050Z,5.13
2018-05-14T20:20:21.353Z,5.10
2018-05-14T20:22:47.788Z,5.23
2018-05-14T20:25:14.439Z,5.27
2018-05-14T20:27:41.070Z,5.43
2018-05-14T20:30:07.526Z,5.33
2018-05-14T20:32:37.526Z,4.80
2018-05-14T20:35:04.117Z,4.93
2018-05-14T20:37:30.816Z,5.60
2018-05-14T20:39:57.421Z,5.17
2018-05-14T20:42:25.245Z,4.93
2018-05-14T20:44:51.869Z,4.97
2018-05-14T20:47:18.661Z,5.63
2018-05-14T20:49:45.284Z,5.27
2018-05-14T20:52:12.000Z,5.03
2018-05-14T20:54:38.572Z,5.00
2018-05-14T20:57:05.211Z,5.17
2018-05-14T20:59:31.844Z,5.07
2018-05-14T21:01:58.797Z,5.60
2018-05-14T21:04:25.429Z,5.77
2018-05-14T21:06:52.040Z,6.30
2018-05-14T21:09:18.861Z,6.37
2018-05-14T21:11:50.276Z,5.57
2018-05-14T21:14:16.946Z,5.53
2018-05-14T21:16:43.539Z,6.00
2018-05-14T21:19:10.161Z,5.47
2018-05-14T21:21:37.214Z,5.50
2018-05-14T21:24:04.821Z,5.90
2018-05-14T21:26:31.326Z,5.73
2018-05-14T21:28:57.924Z,5.40
2018-05-14T21:31:26.232Z,5.53
2018-05-14T21:33:52.878Z,5.60
2018-05-14T21:36:19.469Z,5.00
2018-05-14T21:38:46.186Z,5.30
2018-05-14T21:41:13.296Z,5.20
2018-05-14T21:43:40.237Z,5.53
2018-05-14T21:46:06.966Z,5.27
2018-05-14T21:48:34.134Z,5.43
2018-05-14T21:51:01.113Z,5.10
2018-05-14T21:53:28.027Z,5.30
2018-05-14T21:55:54.944Z,5.10
2018-05-14T21:58:21.950Z,5.53
2018-05-14T22:00:51.769Z,5.53
2018-05-14T22:03:18.420Z,5.47
2018-05-14T22:05:49.907Z,5.70
2018-05-14T22:08:16.542Z,6.77
2018-05-14T22:10:43.341Z,6.33
2018-05-14T22:13:10.035Z,7.33
2018-05-14T22:15:36.679Z,7.63
2018-05-14T22:18:03.185Z,6.97
2018-05-14T22:20:29.667Z,7.17
2018-05-14T22:22:56.424Z,7.57
2018-05-14T22:25:23.123Z,6.93
2018-05-14T22:27:49.816Z,7.33
2018-05-14T22:30:16.614Z,7.40
2018-05-14T22:32:44.132Z,7.90
2018-05-14T22:35:10.757Z,8.33
2018-05-14T22:37:37.724Z,7.17
2018-05-14T22:40:04.201Z,7.37
2018-05-14T22:42:30.902Z,6.87
2018-05-14T22:44:57.546Z,6.37
2018-05-14T22:47:24.079Z,7.10
2018-05-14T22:49:51.094Z,6.37
2018-05-14T22:52:18.023Z,6.00
2018-05-14T22:54:44.656Z,6.10
2018-05-14T22:57:11.313Z,6.03
2018-05-14T22:59:37.992Z,5.83
2018-05-14T23:02:05.676Z,5.97
2018-05-14T23:04:32.401Z,5.90
2018-05-14T23:06:59.027Z,5.80
2018-05-14T23:09:25.913Z,5.47
2018-05-14T23:11:53.090Z,6.17
2018-05-14T23:14:19.982Z,5.73
2018-05-14T23:16:46.709Z,6.00
2018-05-14T23:19:13.475Z,5.70
2018-05-14T23:21:46.513Z,5.73
2018-05-14T23:24:13.092Z,6.43
2018-05-14T23:26:39.816Z,5.97
2018-05-14T23:29:06.574Z,6.23
2018-05-14T23:31:36.602Z,6.07
2018-05-14T23:34:03.834Z,5.50
2018-05-14T23:36:30.646Z,6.70
2018-05-14T23:38:57.493Z,6.10
2018-05-14T23:41:24.399Z,6.20
2018-05-14T23:43:51.194Z,6.27
2018-05-14T23:46:17.975Z,5.87
2018-05-14T23:48:44.641Z,5.80
2018-05-14T23:51:11.431Z,5.53
2018-05-14T23:53:38.106Z,6.03
2018-05-14T23:56:04.835Z,5.63
2018-05-14T23:58:31.522Z,5.83
